createdAt,value
2019-05-22T00:01:44.036Z,99269.16
2019-05-22T00:04:16.534Z,99262.77
2019-05-22T00:06:47.825Z,99261.07
2019-05-22T00:09:19.738Z,99263.48
2019-05-22T00:11:52.233Z,99260.00
2019-05-22T00:14:24.559Z,99263.13
2019-05-22T00:16:54.503Z,99271.38
2019-05-22T00:19:24.941Z,99272.32
2019-05-22T00:22:00.999Z,99276.55
2019-05-22T00:24:32.395Z,99281.52
2019-05-22T00:27:04.973Z,99284.18
2019-05-22T00:29:35.527Z,99288.16
2019-05-22T00:32:05.433Z,99280.05
2019-05-22T00:34:36.217Z,99286.72
2019-05-22T00:37:07.897Z,99277.86
2019-05-22T00:39:37.422Z,99272.92
2019-05-22T00:42:11.483Z,99271.47
2019-05-22T00:44:42.641Z,99261.81
2019-05-22T00:47:14.436Z,99260.45
2019-05-22T00:49:46.914Z,99260.94
2019-05-22T00:52:45.199Z,99256.22
2019-05-22T00:55:31.649Z,99253.20
2019-05-22T00:58:05.991Z,99259.97
2019-05-22T01:00:45.456Z,99263.36
2019-05-22T01:03:19.128Z,99266.38
2019-05-22T01:05:49.537Z,99264.47
2019-05-22T01:08:20.556Z,99264.45
2019-05-22T01:10:53.091Z,99274.23
2019-05-22T01:13:22.823Z,99263.35
2019-05-22T01:15:52.524Z,99269.76
2019-05-22T01:18:26.010Z,99267.70
2019-05-22T01:20:59.270Z,99272.30
2019-05-22T01:23:33.270Z,99275.56
2019-05-22T01:26:03.135Z,99268.13
2019-05-22T01:28:35.778Z,99269.19
2019-05-22T01:31:16.244Z,99274.76
2019-05-22T01:33:50.042Z,99285.28
2019-05-22T01:36:30.445Z,99288.91
2019-05-22T01:39:16.251Z,99288.15
2019-05-22T01:41:50.439Z,99288.39
2019-05-22T01:44:22.112Z,99285.21
2019-05-22T01:46:53.944Z,99292.55
2019-05-22T01:49:25.585Z,99289.40
2019-05-22T01:51:56.025Z,99305.47
2019-05-22T01:54:25.915Z,99301.61
2019-05-22T01:57:04.312Z,99293.51
2019-05-22T01:59:36.889Z,99295.56
2019-05-22T02:02:09.481Z,99302.89
2019-05-22T02:04:39.556Z,99309.98
2019-05-22T02:07:11.704Z,99304.41
2019-05-22T02:09:42.997Z,99302.91
2019-05-22T02:12:20.505Z,99301.88
2019-05-22T02:14:52.058Z,99306.70
2019-05-22T02:17:25.717Z,99296.62
2019-05-22T02:19:55.676Z,99301.31
2019-05-22T02:22:27.191Z,99299.50
2019-05-22T02:24:57.861Z,99305.13
2019-05-22T02:27:28.107Z,99301.02
2019-05-22T02:29:59.129Z,99304.62
2019-05-22T02:32:29.444Z,99304.86
2019-05-22T02:34:58.889Z,99299.09
2019-05-22T02:37:28.748Z,99306.55
2019-05-22T02:39:58.657Z,99311.19
2019-05-22T02:42:30.893Z,99306.63
2019-05-22T02:45:01.722Z,99302.36
2019-05-22T02:47:32.133Z,99306.09
2019-05-22T02:50:01.639Z,99304.39
2019-05-22T02:52:31.189Z,99303.88
2019-05-22T02:55:00.858Z,99301.59
2019-05-22T02:57:31.736Z,99299.79
2019-05-22T03:00:01.791Z,99301.00
2019-05-22T03:02:32.904Z,99298.72
2019-05-22T03:05:08.626Z,99299.70
2019-05-22T03:07:40.400Z,99299.52
2019-05-22T03:10:13.519Z,99302.94
2019-05-22T03:12:45.648Z,99299.48
2019-05-22T03:15:18.124Z,99302.40
2019-05-22T03:17:49.635Z,99302.69
2019-05-22T03:20:21.889Z,99295.89
2019-05-22T03:23:19.054Z,99304.84
2019-05-22T03:25:48.542Z,99299.89
2019-05-22T03:28:18.128Z,99300.79
2019-05-22T03:30:50.308Z,99304.14
2019-05-22T03:33:19.765Z,99307.33
2019-05-22T03:35:52.085Z,99298.55
2019-05-22T03:38:23.180Z,99306.93
2019-05-22T03:40:54.701Z,99305.45
2019-05-22T03:43:27.226Z,99309.13
2019-05-22T03:45:58.913Z,99305.61
2019-05-22T03:48:32.522Z,99312.66
2019-05-22T03:51:12.399Z,99315.91
2019-05-22T03:53:44.090Z,99314.59
2019-05-22T03:56:17.612Z,99321.83
2019-05-22T03:58:47.589Z,99327.30
2019-05-22T04:01:19.507Z,99329.09
2019-05-22T04:03:49.451Z,99328.81
2019-05-22T04:06:21.967Z,99337.13
2019-05-22T04:08:54.329Z,99328.23
2019-05-22T04:11:27.830Z,99334.40
2019-05-22T04:13:58.449Z,99331.19
2019-05-22T04:16:28.778Z,99338.84
2019-05-22T04:18:58.437Z,99332.72
2019-05-22T04:21:30.185Z,99335.69
2019-05-22T04:24:00.598Z,99334.75
2019-05-22T04:26:30.827Z,99334.03
2019-05-22T04:29:02.313Z,99342.30
2019-05-22T04:31:42.075Z,99342.57
2019-05-22T04:34:12.188Z,99338.45
2019-05-22T04:36:41.763Z,99330.98
2019-05-22T04:39:18.767Z,99338.89
2019-05-22T04:41:48.622Z,99332.69
2019-05-22T04:44:18.651Z,99348.94
2019-05-22T04:46:48.559Z,99337.36
2019-05-22T04:49:18.133Z,99338.59
2019-05-22T04:51:47.794Z,99334.06
2019-05-22T04:54:17.314Z,99340.43
2019-05-22T04:56:47.401Z,99330.53
2019-05-22T04:59:17.678Z,99325.36
2019-05-22T05:01:47.485Z,99320.06
2019-05-22T05:04:17.221Z,99322.83
2019-05-22T05:06:46.681Z,99321.52
2019-05-22T05:09:16.306Z,99322.30
2019-05-22T05:11:46.904Z,99320.58
2019-05-22T05:14:16.383Z,99315.02
2019-05-22T05:16:46.993Z,99314.13
2019-05-22T05:19:16.783Z,99310.58
2019-05-22T05:21:46.339Z,99314.00
2019-05-22T05:24:15.839Z,99303.34
2019-05-22T05:26:46.477Z,99301.48
2019-05-22T05:29:31.209Z,99300.16
2019-05-22T05:32:01.306Z,99304.20
2019-05-22T05:35:05.026Z,99313.27
2019-05-22T05:37:34.868Z,99319.81
2019-05-22T05:40:29.693Z,99307.40
2019-05-22T05:43:00.124Z,99310.47
2019-05-22T05:45:30.972Z,99320.11
2019-05-22T05:48:02.729Z,99312.78
2019-05-22T05:50:39.708Z,99314.22
2019-05-22T05:53:08.970Z,99323.50
2019-05-22T05:56:02.947Z,99321.15
2019-05-22T05:58:32.964Z,99311.55
2019-05-22T06:01:13.175Z,99308.97
2019-05-22T06:03:43.461Z,99322.45
2019-05-22T06:07:00.742Z,99322.98
2019-05-22T06:09:30.832Z,99318.81
2019-05-22T06:12:05.376Z,99314.37
2019-05-22T06:14:35.568Z,99321.64
2019-05-22T06:17:51.909Z,99331.43
2019-05-22T06:20:24.133Z,99333.34
2019-05-22T06:23:48.551Z,99332.77
2019-05-22T06:27:00.335Z,99338.48
2019-05-22T06:30:14.194Z,99336.24
2019-05-22T06:33:21.782Z,99332.28
2019-05-22T06:36:00.356Z,99326.55
2019-05-22T06:39:15.548Z,99319.67
2019-05-22T06:41:46.782Z,99321.02
2019-05-22T06:44:35.331Z,99318.50
2019-05-22T06:47:06.901Z,99319.73
2019-05-22T06:49:47.843Z,99313.42
2019-05-22T06:52:17.993Z,99314.96
2019-05-22T06:54:47.755Z,99313.09
2019-05-22T06:57:39.263Z,99313.78
2019-05-22T07:00:15.196Z,99306.21
2019-05-22T07:02:47.305Z,99311.75
2019-05-22T07:05:17.040Z,99303.19
2019-05-22T07:07:47.134Z,99306.33
2019-05-22T07:10:16.841Z,99309.52
2019-05-22T07:12:50.512Z,99301.82
2019-05-22T07:15:41.835Z,99294.59
2019-05-22T07:18:13.463Z,99290.94
2019-05-22T07:20:45.714Z,99296.03
2019-05-22T07:26:25.021Z,99299.49
2019-05-22T07:29:04.465Z,99297.80
2019-05-22T07:31:32.199Z,99300.19
2019-05-22T07:34:01.763Z,99296.16
2019-05-22T07:36:33.115Z,99296.53
2019-05-22T07:39:04.738Z,99294.52
2019-05-22T07:41:35.301Z,99291.67
2019-05-22T07:44:05.250Z,99287.97
2019-05-22T07:46:35.063Z,99289.12
2019-05-22T07:49:05.281Z,99276.31
2019-05-22T07:51:50.438Z,99275.47
2019-05-22T07:54:07.117Z,99272.95
2019-05-22T07:56:37.534Z,99267.23
2019-05-22T07:59:06.905Z,99262.17
2019-05-22T08:01:36.648Z,99264.52
2019-05-22T08:04:06.696Z,99261.34
2019-05-22T08:06:36.282Z,99257.98
2019-05-22T08:09:09.602Z,99258.14
2019-05-22T08:11:39.673Z,99251.89
2019-05-22T08:14:11.178Z,99250.33
2019-05-22T08:16:41.760Z,99245.88
2019-05-22T08:19:11.347Z,99246.87
2019-05-22T08:21:42.323Z,99243.67
2019-05-22T08:24:11.869Z,99241.45
2019-05-22T08:26:53.852Z,99249.88
2019-05-22T08:29:15.283Z,99250.33
2019-05-22T08:31:45.491Z,99238.69
2019-05-22T08:34:16.505Z,99234.73
2019-05-22T08:36:48.925Z,99235.75
2019-05-22T08:39:19.196Z,99221.59
2019-05-22T08:41:49.122Z,99222.78
2019-05-22T08:44:19.149Z,99220.47
2019-05-22T08:46:49.692Z,99218.80
2019-05-22T08:49:19.463Z,99220.72
2019-05-22T08:51:49.830Z,99219.55
2019-05-22T08:54:19.917Z,99223.09
2019-05-22T08:56:52.068Z,99217.83
2019-05-22T08:59:22.487Z,99211.28
2019-05-22T09:01:52.363Z,99207.48
2019-05-22T09:04:22.386Z,99205.33
2019-05-22T09:06:51.890Z,99215.00
2019-05-22T09:09:22.028Z,99218.18
2019-05-22T09:11:51.668Z,99219.29
2019-05-22T09:14:21.074Z,99217.59
2019-05-22T09:16:50.944Z,99222.53
2019-05-22T09:19:20.905Z,99225.19
2019-05-22T09:21:50.904Z,99220.91
2019-05-22T09:24:21.386Z,99225.41
2019-05-22T09:26:50.879Z,99223.02
2019-05-22T09:29:20.954Z,99226.09
2019-05-22T09:31:50.924Z,99217.20
2019-05-22T09:34:20.544Z,99216.38
2019-05-22T09:36:49.946Z,99203.56
2019-05-22T09:39:19.749Z,99201.77
2019-05-22T09:41:49.213Z,99204.91
2019-05-22T09:44:18.642Z,99202.91
2019-05-22T09:46:49.423Z,99203.66
2019-05-22T09:49:19.116Z,99203.75
2019-05-22T09:51:48.628Z,99197.97
2019-05-22T09:54:18.284Z,99191.58
2019-05-22T09:56:47.830Z,99193.98
2019-05-22T09:59:18.821Z,99199.78
2019-05-22T10:01:48.375Z,99191.17
2019-05-22T10:04:17.866Z,99182.98
2019-05-22T10:06:47.850Z,99198.20
2019-05-22T10:09:17.631Z,99196.35
2019-05-22T10:11:47.822Z,99198.17
2019-05-22T10:14:17.617Z,99189.56
2019-05-22T10:16:47.074Z,99182.38
2019-05-22T10:19:16.634Z,99176.45
2019-05-22T10:21:47.322Z,99177.35
2019-05-22T10:24:16.938Z,99168.42
2019-05-22T10:26:46.719Z,99172.48
2019-05-22T10:29:16.326Z,99159.70
2019-05-22T10:31:45.866Z,99160.77
2019-05-22T10:34:15.472Z,99153.98
2019-05-22T10:36:44.910Z,99156.91
2019-05-22T10:39:14.544Z,99155.00
2019-05-22T10:41:44.258Z,99151.88
2019-05-22T10:44:13.708Z,99150.35
2019-05-22T10:46:44.509Z,99148.16
2019-05-22T10:49:14.109Z,99143.60
2019-05-22T10:51:43.840Z,99153.11
2019-05-22T10:54:13.214Z,99137.91
2019-05-22T10:56:43.751Z,99144.88
2019-05-22T10:59:13.372Z,99148.42
2019-05-22T11:01:42.781Z,99147.61
2019-05-22T11:04:12.888Z,99138.34
2019-05-22T11:06:42.708Z,99136.30
2019-05-22T11:09:13.701Z,99134.27
2019-05-22T11:11:43.346Z,99136.45
2019-05-22T11:14:14.323Z,99139.54
2019-05-22T11:16:44.038Z,99132.80
2019-05-22T11:19:13.517Z,99139.60
2019-05-22T11:21:43.716Z,99133.13
2019-05-22T11:24:13.211Z,99132.66
2019-05-22T11:26:43.937Z,99122.81
2019-05-22T11:29:14.025Z,99116.94
2019-05-22T11:31:44.430Z,99123.18
2019-05-22T11:34:14.390Z,99118.58
2019-05-22T11:36:44.013Z,99111.84
2019-05-22T11:39:17.023Z,99121.53
2019-05-22T11:41:47.841Z,99120.05
2019-05-22T11:44:17.823Z,99120.70
2019-05-22T11:46:47.328Z,99121.17
2019-05-22T11:49:17.070Z,99119.70
2019-05-22T11:51:47.045Z,99115.53
2019-05-22T11:54:16.596Z,99118.66
2019-05-22T11:56:46.236Z,99112.19
2019-05-22T11:59:16.177Z,99112.27
2019-05-22T12:01:46.153Z,99108.78
2019-05-22T12:04:16.266Z,99112.58
2019-05-22T12:06:47.096Z,99108.80
2019-05-22T12:09:16.613Z,99115.11
2019-05-22T12:11:46.742Z,99113.34
2019-05-22T12:14:17.830Z,99108.63
2019-05-22T12:16:47.909Z,99101.29
2019-05-22T12:19:17.582Z,99100.67
2019-05-22T12:21:47.005Z,99113.14
2019-05-22T12:24:27.219Z,99111.11
2019-05-22T12:26:48.464Z,99104.84
2019-05-22T12:29:18.300Z,99088.59
2019-05-22T12:31:47.986Z,99077.59
2019-05-22T12:34:18.104Z,99082.39
2019-05-22T12:36:51.179Z,99084.13
2019-05-22T12:39:19.367Z,99072.75
2019-05-22T12:41:49.865Z,99070.92
2019-05-22T12:44:20.219Z,99066.30
2019-05-22T12:46:50.510Z,99057.95
2019-05-22T12:49:20.794Z,99056.59
2019-05-22T12:51:50.802Z,99054.20
2019-05-22T12:54:20.291Z,99059.14
2019-05-22T12:56:50.415Z,99057.13
2019-05-22T12:59:20.246Z,99046.14
2019-05-22T13:01:51.915Z,99044.75
2019-05-22T13:04:23.355Z,99050.48
2019-05-22T13:06:52.964Z,99046.78
2019-05-22T13:09:22.601Z,99044.07
2019-05-22T13:11:52.394Z,99045.93
2019-05-22T13:14:21.749Z,99044.97
2019-05-22T13:16:51.355Z,99045.14
2019-05-22T13:19:21.383Z,99048.60
2019-05-22T13:21:53.036Z,99048.52
2019-05-22T13:24:23.379Z,99050.70
2019-05-22T13:26:53.270Z,99050.27
2019-05-22T13:29:24.045Z,99049.83
2019-05-22T13:31:54.527Z,99058.05
2019-05-22T13:34:27.033Z,99049.31
2019-05-22T13:36:58.082Z,99047.86
2019-05-22T13:39:27.821Z,99043.64
2019-05-22T13:41:57.320Z,99026.80
2019-05-22T13:44:27.455Z,99028.52
2019-05-22T13:46:57.941Z,99029.38
2019-05-22T13:49:29.594Z,99035.77
2019-05-22T13:52:00.379Z,99029.48
2019-05-22T13:54:30.380Z,99017.30
2019-05-22T13:57:00.558Z,99011.70
2019-05-22T13:59:30.712Z,99013.27
2019-05-22T14:02:00.331Z,99017.91
2019-05-22T14:04:29.854Z,99013.62
2019-05-22T14:06:59.437Z,99013.48
2019-05-22T14:09:29.372Z,99022.34
2019-05-22T14:11:59.228Z,99024.09
2019-05-22T14:14:28.997Z,99017.16
2019-05-22T14:16:58.589Z,99014.19
2019-05-22T14:19:28.185Z,99014.77
2019-05-22T14:21:57.687Z,99023.83
2019-05-22T14:24:27.226Z,99017.05
2019-05-22T14:26:56.974Z,99016.88
2019-05-22T14:29:26.527Z,99019.19
2019-05-22T14:31:56.438Z,99021.44
2019-05-22T14:34:26.621Z,99015.37
2019-05-22T14:36:57.631Z,99020.36
2019-05-22T14:39:28.481Z,99020.59
2019-05-22T14:41:59.276Z,99014.69
2019-05-22T14:44:28.838Z,99009.69
2019-05-22T14:47:12.195Z,99000.68
2019-05-22T14:49:29.643Z,98996.89
2019-05-22T14:51:59.156Z,99001.13
2019-05-22T14:54:28.979Z,98993.94
2019-05-22T14:56:58.514Z,98988.37
2019-05-22T14:59:28.069Z,98978.53
2019-05-22T15:01:58.512Z,98978.70
2019-05-22T15:04:28.228Z,98979.12
2019-05-22T15:06:57.960Z,98980.34
2019-05-22T15:09:27.741Z,98979.95
2019-05-22T15:11:57.304Z,98975.96
2019-05-22T15:14:26.875Z,98974.85
2019-05-22T15:16:56.393Z,98969.42
2019-05-22T15:19:26.217Z,98962.92
2019-05-22T15:21:55.632Z,98952.80
2019-05-22T15:24:26.488Z,98949.33
2019-05-22T15:26:56.961Z,98954.20
2019-05-22T15:29:26.556Z,98949.59
2019-05-22T15:31:56.768Z,98954.81
2019-05-22T15:34:26.580Z,98950.64
2019-05-22T15:36:57.397Z,98953.36
2019-05-22T15:39:28.836Z,98952.75
2019-05-22T15:41:59.470Z,98952.31
2019-05-22T15:44:29.863Z,98952.22
2019-05-22T15:46:59.411Z,98960.17
2019-05-22T15:49:30.267Z,98952.76
2019-05-22T15:52:00.216Z,98955.17
2019-05-22T15:54:31.258Z,98956.56
2019-05-22T15:57:03.828Z,98945.78
2019-05-22T15:59:35.889Z,98943.71
2019-05-22T16:02:06.396Z,98942.54
2019-05-22T16:04:38.971Z,98940.56
2019-05-22T16:07:09.184Z,98934.20
2019-05-22T16:09:38.905Z,98933.85
2019-05-22T16:12:09.321Z,98933.02
2019-05-22T16:14:39.971Z,98938.45
2019-05-22T16:17:09.987Z,98935.34
2019-05-22T16:19:40.234Z,98934.31
2019-05-22T16:22:11.755Z,98929.21
2019-05-22T16:24:41.743Z,98938.59
2019-05-22T16:27:14.297Z,98936.73
2019-05-22T16:29:45.047Z,98939.45
2019-05-22T16:32:17.854Z,98934.40
2019-05-22T16:34:47.808Z,98930.81
2019-05-22T16:37:17.825Z,98925.14
2019-05-22T16:39:50.219Z,98930.67
2019-05-22T16:42:19.358Z,98923.38
2019-05-22T16:44:49.006Z,98917.73
2019-05-22T16:47:19.934Z,98909.81
2019-05-22T16:49:51.490Z,98914.02
2019-05-22T16:52:21.215Z,98915.14
2019-05-22T16:54:51.226Z,98922.78
2019-05-22T16:57:21.136Z,98921.73
2019-05-22T16:59:51.290Z,98920.80
2019-05-22T17:02:21.430Z,98924.72
2019-05-22T17:04:51.625Z,98927.94
2019-05-22T17:07:21.507Z,98929.39
2019-05-22T17:09:52.585Z,98926.69
2019-05-22T17:12:23.392Z,98928.81
2019-05-22T17:14:53.778Z,98928.60
2019-05-22T17:17:23.398Z,98928.73
2019-05-22T17:19:53.203Z,98928.02
2019-05-22T17:22:24.098Z,98926.32
2019-05-22T17:24:53.832Z,98924.67
2019-05-22T17:27:23.409Z,98921.10
2019-05-22T17:29:53.001Z,98920.81
2019-05-22T17:32:24.797Z,98925.30
2019-05-22T17:34:54.434Z,98921.22
2019-05-22T17:37:27.070Z,98923.74
2019-05-22T17:39:56.753Z,98926.77
2019-05-22T17:42:28.252Z,98930.52
2019-05-22T17:44:59.495Z,98923.80
2019-05-22T17:47:30.712Z,98927.30
2019-05-22T17:50:01.915Z,98932.11
2019-05-22T17:52:32.764Z,98929.02
2019-05-22T17:55:03.137Z,98933.34
2019-05-22T17:57:32.765Z,98932.11
2019-05-22T18:00:04.210Z,98937.72
2019-05-22T18:02:35.453Z,98933.94
2019-05-22T18:05:06.965Z,98929.80
2019-05-22T18:07:37.231Z,98933.83
2019-05-22T18:10:08.537Z,98937.03
2019-05-22T18:12:39.669Z,98931.05
2019-05-22T18:15:11.170Z,98935.65
2019-05-22T18:17:41.054Z,98938.28
2019-05-22T18:20:12.628Z,98934.94
2019-05-22T18:22:42.666Z,98933.81
2019-05-22T18:25:13.605Z,98932.72
2019-05-22T18:27:43.912Z,98931.29
2019-05-22T18:30:14.211Z,98931.73
2019-05-22T18:32:44.072Z,98928.63
2019-05-22T18:35:15.326Z,98931.27
2019-05-22T18:37:44.837Z,98938.94
2019-05-22T18:40:15.606Z,98938.31
2019-05-22T18:42:45.141Z,98941.45
2019-05-22T18:45:14.872Z,98944.59
2019-05-22T18:47:44.416Z,98944.29
2019-05-22T18:50:16.263Z,98956.48
2019-05-22T18:52:49.572Z,98956.95
2019-05-22T18:55:19.856Z,98962.58
2019-05-22T18:57:49.293Z,98954.86
2019-05-22T19:00:22.468Z,98956.92
2019-05-22T19:02:52.044Z,98966.08
2019-05-22T19:05:25.422Z,98967.95
2019-05-22T19:07:55.203Z,98969.71
2019-05-22T19:10:24.773Z,98962.36
2019-05-22T19:12:54.336Z,98965.61
2019-05-22T19:15:24.441Z,98972.42
2019-05-22T19:17:54.464Z,98979.81
2019-05-22T19:20:24.136Z,98980.36
2019-05-22T19:23:00.542Z,98983.41
2019-05-22T19:25:25.363Z,98985.63
2019-05-22T19:27:54.855Z,98985.00
2019-05-22T19:30:24.847Z,98987.36
2019-05-22T19:32:54.289Z,98981.48
2019-05-22T19:35:23.872Z,98984.89
2019-05-22T19:37:53.773Z,98984.73
2019-05-22T19:40:23.661Z,98989.81
2019-05-22T19:42:53.203Z,98996.86
2019-05-22T19:45:24.934Z,98993.16
2019-05-22T19:47:56.933Z,98999.05
2019-05-22T19:50:27.010Z,99000.21
2019-05-22T19:52:57.693Z,98997.19
2019-05-22T19:55:28.724Z,99005.59
2019-05-22T19:57:58.897Z,99016.54
2019-05-22T20:00:30.528Z,99016.03
2019-05-22T20:02:59.994Z,99018.08
2019-05-22T20:05:29.885Z,99019.42
2019-05-22T20:08:00.066Z,99029.16
2019-05-22T20:10:29.609Z,99034.89
2019-05-22T20:12:59.625Z,99039.25
2019-05-22T20:15:29.192Z,99044.81
2019-05-22T20:17:58.748Z,99049.02
2019-05-22T20:20:28.240Z,99051.06
2019-05-22T20:22:58.484Z,99053.23
2019-05-22T20:25:28.345Z,99045.85
2019-05-22T20:27:59.244Z,99049.04
2019-05-22T20:30:28.859Z,99042.48
2019-05-22T20:32:58.322Z,99047.03
2019-05-22T20:35:27.871Z,99048.53
2019-05-22T20:38:00.425Z,99051.05
2019-05-22T20:40:30.289Z,99060.16
2019-05-22T20:43:00.363Z,99066.70
2019-05-22T20:45:30.832Z,99070.75
2019-05-22T20:48:21.850Z,99070.57
2019-05-22T20:50:51.597Z,99066.88
2019-05-22T20:53:22.010Z,99073.59
2019-05-22T20:55:52.519Z,99082.81
2019-05-22T20:58:23.091Z,99087.20
2019-05-22T21:00:53.300Z,99097.93
2019-05-22T21:03:23.086Z,99097.93
2019-05-22T21:05:54.347Z,99104.28
2019-05-22T21:08:26.642Z,99100.42
2019-05-22T21:10:58.733Z,99113.16
2019-05-22T21:13:28.482Z,99111.78
2019-05-22T21:15:58.679Z,99116.66
2019-05-22T21:18:34.699Z,99115.81
2019-05-22T21:21:05.349Z,99122.49
2019-05-22T21:23:35.743Z,99132.20
2019-05-22T21:26:05.475Z,99140.42
2019-05-22T21:28:35.419Z,99143.56
2019-05-22T21:31:05.998Z,99142.84
2019-05-22T21:33:36.125Z,99147.02
2019-05-22T21:36:06.299Z,99155.54
2019-05-22T21:38:36.206Z,99160.72
2019-05-22T21:41:06.392Z,99164.02
2019-05-22T21:43:36.122Z,99160.82
2019-05-22T21:46:05.834Z,99157.95
2019-05-22T21:48:36.513Z,99148.48
2019-05-22T21:51:07.589Z,99154.16
2019-05-22T21:53:37.946Z,99152.42
2019-05-22T21:56:08.239Z,99153.58
2019-05-22T21:58:38.559Z,99156.38
2019-05-22T22:01:17.878Z,99157.86
2019-05-22T22:03:52.543Z,99161.83
2019-05-22T22:06:22.779Z,99151.23
2019-05-22T22:08:52.795Z,99154.07
2019-05-22T22:11:25.892Z,99167.44
2019-05-22T22:13:56.522Z,99158.83
2019-05-22T22:16:26.967Z,99166.14
2019-05-22T22:18:56.828Z,99166.30
2019-05-22T22:21:27.144Z,99161.38
2019-05-22T22:23:57.408Z,99155.80
2019-05-22T22:26:29.830Z,99161.75
2019-05-22T22:28:59.591Z,99161.07
2019-05-22T22:31:32.382Z,99158.27
2019-05-22T22:34:15.030Z,99162.22
2019-05-22T22:36:44.526Z,99150.37
2019-05-22T22:39:15.176Z,99153.45
2019-05-22T22:41:46.237Z,99158.59
2019-05-22T22:47:42.244Z,99172.34
2019-05-22T22:50:13.249Z,99166.63
2019-05-22T22:52:45.905Z,99165.41
2019-05-22T22:55:17.576Z,99159.48
2019-05-22T22:57:50.881Z,99161.13
2019-05-22T23:00:38.105Z,99153.69
2019-05-22T23:03:11.765Z,99152.94
2019-05-22T23:05:43.151Z,99148.19
2019-05-22T23:08:17.339Z,99144.78
2019-05-22T23:10:47.627Z,99139.95
2019-05-22T23:13:17.994Z,99139.77
2019-05-22T23:15:49.054Z,99139.25
2019-05-22T23:18:47.615Z,99142.30
2019-05-22T23:21:16.227Z,99143.92
2019-05-22T23:24:20.229Z,99143.92
2019-05-22T23:26:50.846Z,99147.78
2019-05-22T23:29:21.273Z,99140.42
2019-05-22T23:31:50.812Z,99143.05
2019-05-22T23:34:20.517Z,99146.28
2019-05-22T23:36:50.525Z,99143.83
2019-05-22T23:39:21.913Z,99144.32
2019-05-22T23:41:56.307Z,99137.63
2019-05-22T23:44:25.348Z,99145.61
2019-05-22T23:46:56.058Z,99141.64
2019-05-22T23:49:26.167Z,99138.62
2019-05-22T23:51:55.937Z,99139.11
2019-05-22T23:54:25.973Z,99136.10
2019-05-22T23:56:57.063Z,99121.55
2019-05-22T23:59:27.971Z,99118.52
